sensor_id;sensor_type;location;lat;lon;timestamp;temperature;humidity
13808;DHT22;40769;51.512;5.494;2022-09-30T00:01:39;10.50;99.90
13808;DHT22;40769;51.512;5.494;2022-09-30T00:04:12;10.50;99.90
13808;DHT22;40769;51.512;5.494;2022-09-30T00:06:38;10.60;99.90
13808;DHT22;40769;51.512;5.494;2022-09-30T00:09:04;10.60;99.90
13808;DHT22;40769;51.512;5.494;2022-09-30T00:11:33;11.10;99.90
13808;DHT22;40769;51.512;5.494;2022-09-30T00:14:00;10.60;99.90
13808;DHT22;40769;51.512;5.494;2022-09-30T00:16:29;10.60;99.90
13808;DHT22;40769;51.512;5.494;2022-09-30T00:18:56;10.60;99.90
13808;DHT22;40769;51.512;5.494;2022-09-30T00:21:23;10.60;99.90
13808;DHT22;40769;51.512;5.494;2022-09-30T00:23:50;10.60;99.90
13808;DHT22;40769;51.512;5.494;2022-09-30T00:26:19;10.60;99.90
13808;DHT22;40769;51.512;5.494;2022-09-30T00:28:47;11.30;99.90
13808;DHT22;40769;51.512;5.494;2022-09-30T00:31:14;11.50;99.90
13808;DHT22;40769;51.512;5.494;2022-09-30T00:33:41;10.60;99.90
13808;DHT22;40769;51.512;5.494;2022-09-30T00:36:08;10.60;99.90
13808;DHT22;40769;51.512;5.494;2022-09-30T00:38:34;10.70;99.90
13808;DHT22;40769;51.512;5.494;2022-09-30T00:41:01;11.20;99.90
13808;DHT22;40769;51.512;5.494;2022-09-30T00:43:42;10.50;99.90
13808;DHT22;40769;51.512;5.494;2022-09-30T00:46:26;10.50;99.90
13808;DHT22;40769;51.512;5.494;2022-09-30T00:48:55;10.30;99.90
13808;DHT22;40769;51.512;5.494;2022-09-30T00:51:27;10.10;99.90
13808;DHT22;40769;51.512;5.494;2022-09-30T00:53:58;9.90;99.90
13808;DHT22;40769;51.512;5.494;2022-09-30T00:56:27;9.70;99.90
13808;DHT22;40769;51.512;5.494;2022-09-30T00:59:30;9.70;99.90
13808;DHT22;40769;51.512;5.494;2022-09-30T01:01:57;9.70;99.90
13808;DHT22;40769;51.512;5.494;2022-09-30T01:04:24;9.70;99.90
13808;DHT22;40769;51.512;5.494;2022-09-30T01:06:50;9.80;99.90
13808;DHT22;40769;51.512;5.494;2022-09-30T01:09:17;10.30;99.90
13808;DHT22;40769;51.512;5.494;2022-09-30T01:11:43;9.90;99.90
13808;DHT22;40769;51.512;5.494;2022-09-30T01:14:16;10.00;99.90
13808;DHT22;40769;51.512;5.494;2022-09-30T01:17:16;10.00;99.90
13808;DHT22;40769;51.512;5.494;2022-09-30T01:19:56;9.90;99.90
13808;DHT22;40769;51.512;5.494;2022-09-30T01:30:13;9.70;99.90
13808;DHT22;40769;51.512;5.494;2022-09-30T01:40:56;9.90;99.90
13808;DHT22;40769;51.512;5.494;2022-09-30T01:43:45;9.90;99.90
13808;DHT22;40769;51.512;5.494;2022-09-30T01:46:16;10.00;99.90
13808;DHT22;40769;51.512;5.494;2022-09-30T01:49:00;10.00;99.90
13808;DHT22;40769;51.512;5.494;2022-09-30T01:56:48;9.60;99.90
13808;DHT22;40769;51.512;5.494;2022-09-30T01:59:26;9.50;99.90
13808;DHT22;40769;51.512;5.494;2022-09-30T02:01:58;9.40;99.90
13808;DHT22;40769;51.512;5.494;2022-09-30T02:04:38;9.70;99.90
13808;DHT22;40769;51.512;5.494;2022-09-30T02:07:10;9.50;99.90
13808;DHT22;40769;51.512;5.494;2022-09-30T02:09:44;9.60;99.90
13808;DHT22;40769;51.512;5.494;2022-09-30T02:12:16;9.60;99.90
13808;DHT22;40769;51.512;5.494;2022-09-30T02:14:50;9.70;99.90
13808;DHT22;40769;51.512;5.494;2022-09-30T02:17:28;9.70;99.90
13808;DHT22;40769;51.512;5.494;2022-09-30T02:20:02;9.70;99.90
13808;DHT22;40769;51.512;5.494;2022-09-30T02:22:34;9.80;99.90
13808;DHT22;40769;51.512;5.494;2022-09-30T02:25:06;9.90;99.90
13808;DHT22;40769;51.512;5.494;2022-09-30T02:27:39;10.00;99.90
13808;DHT22;40769;51.512;5.494;2022-09-30T02:30:08;10.10;99.90
13808;DHT22;40769;51.512;5.494;2022-09-30T02:35:21;9.50;99.90
13808;DHT22;40769;51.512;5.494;2022-09-30T02:37:54;9.30;99.90
13808;DHT22;40769;51.512;5.494;2022-09-30T02:41:04;9.20;99.90
13808;DHT22;40769;51.512;5.494;2022-09-30T02:43:31;9.10;99.90
13808;DHT22;40769;51.512;5.494;2022-09-30T02:48:54;9.10;99.90
13808;DHT22;40769;51.512;5.494;2022-09-30T02:54:35;9.30;99.90
13808;DHT22;40769;51.512;5.494;2022-09-30T02:59:48;9.50;99.90
13808;DHT22;40769;51.512;5.494;2022-09-30T03:02:15;9.50;99.90
13808;DHT22;40769;51.512;5.494;2022-09-30T03:04:42;9.50;99.90
13808;DHT22;40769;51.512;5.494;2022-09-30T03:07:09;9.30;99.90
13808;DHT22;40769;51.512;5.494;2022-09-30T03:09:35;9.10;99.90
13808;DHT22;40769;51.512;5.494;2022-09-30T03:14:42;8.90;99.90
13808;DHT22;40769;51.512;5.494;2022-09-30T03:20:06;9.00;99.90
13808;DHT22;40769;51.512;5.494;2022-09-30T03:25:49;9.10;99.90
13808;DHT22;40769;51.512;5.494;2022-09-30T03:33:22;9.30;99.90
13808;DHT22;40769;51.512;5.494;2022-09-30T03:35:59;9.20;99.90
13808;DHT22;40769;51.512;5.494;2022-09-30T03:41:26;8.80;99.90
13808;DHT22;40769;51.512;5.494;2022-09-30T03:44:04;8.80;99.90
13808;DHT22;40769;51.512;5.494;2022-09-30T03:49:03;9.30;99.90
13808;DHT22;40769;51.512;5.494;2022-09-30T03:51:31;9.00;99.90
13808;DHT22;40769;51.512;5.494;2022-09-30T03:53:57;8.90;99.90
13808;DHT22;40769;51.512;5.494;2022-09-30T03:56:25;9.00;99.90
13808;DHT22;40769;51.512;5.494;2022-09-30T03:58:51;9.80;99.90
13808;DHT22;40769;51.512;5.494;2022-09-30T04:01:18;9.60;99.90
13808;DHT22;40769;51.512;5.494;2022-09-30T04:03:49;9.00;99.90
13808;DHT22;40769;51.512;5.494;2022-09-30T04:06:18;8.80;99.90
13808;DHT22;40769;51.512;5.494;2022-09-30T04:08:44;8.70;99.90
13808;DHT22;40769;51.512;5.494;2022-09-30T04:11:11;8.60;99.90
13808;DHT22;40769;51.512;5.494;2022-09-30T04:13:38;8.60;99.90
13808;DHT22;40769;51.512;5.494;2022-09-30T04:16:05;8.70;99.90
13808;DHT22;40769;51.512;5.494;2022-09-30T04:18:34;8.70;99.90
13808;DHT22;40769;51.512;5.494;2022-09-30T04:21:04;8.70;99.90
13808;DHT22;40769;51.512;5.494;2022-09-30T04:23:30;8.70;99.90
13808;DHT22;40769;51.512;5.494;2022-09-30T04:25:58;8.70;99.90
13808;DHT22;40769;51.512;5.494;2022-09-30T04:28:23;8.60;99.90
13808;DHT22;40769;51.512;5.494;2022-09-30T04:30:49;8.50;99.90
13808;DHT22;40769;51.512;5.494;2022-09-30T04:33:14;9.70;99.90
13808;DHT22;40769;51.512;5.494;2022-09-30T04:35:40;8.50;99.90
13808;DHT22;40769;51.512;5.494;2022-09-30T04:38:05;9.30;99.90
13808;DHT22;40769;51.512;5.494;2022-09-30T04:40:35;8.80;99.90
13808;DHT22;40769;51.512;5.494;2022-09-30T04:43:01;9.40;99.90
13808;DHT22;40769;51.512;5.494;2022-09-30T04:45:26;9.10;99.90
13808;DHT22;40769;51.512;5.494;2022-09-30T04:47:52;8.80;99.90
13808;DHT22;40769;51.512;5.494;2022-09-30T04:50:18;8.70;99.90
13808;DHT22;40769;51.512;5.494;2022-09-30T04:52:44;8.60;99.90
13808;DHT22;40769;51.512;5.494;2022-09-30T04:55:10;8.50;99.90
13808;DHT22;40769;51.512;5.494;2022-09-30T04:57:36;8.90;99.90
13808;DHT22;40769;51.512;5.494;2022-09-30T05:00:03;8.60;99.90
13808;DHT22;40769;51.512;5.494;2022-09-30T05:02:30;8.70;99.90
13808;DHT22;40769;51.512;5.494;2022-09-30T05:04:56;8.80;99.90
13808;DHT22;40769;51.512;5.494;2022-09-30T05:07:21;8.60;99.90
13808;DHT22;40769;51.512;5.494;2022-09-30T05:09:47;8.50;99.90
13808;DHT22;40769;51.512;5.494;2022-09-30T05:12:12;8.40;99.90
13808;DHT22;40769;51.512;5.494;2022-09-30T05:14:40;8.60;99.90
13808;DHT22;40769;51.512;5.494;2022-09-30T05:17:05;8.30;99.90
13808;DHT22;40769;51.512;5.494;2022-09-30T05:19:31;8.40;99.90
13808;DHT22;40769;51.512;5.494;2022-09-30T05:21:57;8.50;99.90
13808;DHT22;40769;51.512;5.494;2022-09-30T05:24:25;9.30;99.90
13808;DHT22;40769;51.512;5.494;2022-09-30T05:26:51;8.70;99.90
13808;DHT22;40769;51.512;5.494;2022-09-30T05:29:17;8.80;99.90
13808;DHT22;40769;51.512;5.494;2022-09-30T05:31:42;8.70;99.90
13808;DHT22;40769;51.512;5.494;2022-09-30T05:34:08;8.50;99.90
13808;DHT22;40769;51.512;5.494;2022-09-30T05:36:34;8.40;99.90
13808;DHT22;40769;51.512;5.494;2022-09-30T05:39:00;8.30;99.90
13808;DHT22;40769;51.512;5.494;2022-09-30T05:41:26;8.30;99.90
13808;DHT22;40769;51.512;5.494;2022-09-30T05:43:51;8.40;99.90
13808;DHT22;40769;51.512;5.494;2022-09-30T05:46:18;8.50;99.90
13808;DHT22;40769;51.512;5.494;2022-09-30T05:48:44;8.50;99.90
13808;DHT22;40769;51.512;5.494;2022-09-30T05:51:10;8.60;99.90
13808;DHT22;40769;51.512;5.494;2022-09-30T05:53:39;8.70;99.90
13808;DHT22;40769;51.512;5.494;2022-09-30T05:56:06;8.80;99.90
13808;DHT22;40769;51.512;5.494;2022-09-30T05:58:32;8.80;99.90
13808;DHT22;40769;51.512;5.494;2022-09-30T06:01:07;9.40;99.90
13808;DHT22;40769;51.512;5.494;2022-09-30T06:03:33;9.00;99.90
13808;DHT22;40769;51.512;5.494;2022-09-30T06:05:59;9.00;99.90
13808;DHT22;40769;51.512;5.494;2022-09-30T06:08:25;9.10;99.90
13808;DHT22;40769;51.512;5.494;2022-09-30T06:10:51;9.10;99.90
13808;DHT22;40769;51.512;5.494;2022-09-30T06:13:16;9.60;99.90
13808;DHT22;40769;51.512;5.494;2022-09-30T06:15:43;9.10;99.90
13808;DHT22;40769;51.512;5.494;2022-09-30T06:18:09;8.90;99.90
13808;DHT22;40769;51.512;5.494;2022-09-30T06:20:37;8.70;99.90
13808;DHT22;40769;51.512;5.494;2022-09-30T06:23:03;9.00;99.90
13808;DHT22;40769;51.512;5.494;2022-09-30T06:25:29;8.60;99.90
13808;DHT22;40769;51.512;5.494;2022-09-30T06:27:56;9.30;99.90
13808;DHT22;40769;51.512;5.494;2022-09-30T06:30:22;8.80;99.90
13808;DHT22;40769;51.512;5.494;2022-09-30T06:32:47;9.00;99.90
13808;DHT22;40769;51.512;5.494;2022-09-30T06:35:13;9.40;99.90
13808;DHT22;40769;51.512;5.494;2022-09-30T06:37:39;9.30;99.90
13808;DHT22;40769;51.512;5.494;2022-09-30T06:40:06;9.90;99.90
13808;DHT22;40769;51.512;5.494;2022-09-30T06:42:32;9.70;99.90
13808;DHT22;40769;51.512;5.494;2022-09-30T06:44:58;9.90;99.90
13808;DHT22;40769;51.512;5.494;2022-09-30T06:47:24;10.20;99.90
13808;DHT22;40769;51.512;5.494;2022-09-30T06:49:49;10.40;99.90
13808;DHT22;40769;51.512;5.494;2022-09-30T06:52:17;10.60;99.90
13808;DHT22;40769;51.512;5.494;2022-09-30T06:54:44;10.80;99.90
13808;DHT22;40769;51.512;5.494;2022-09-30T06:57:11;11.70;99.90
13808;DHT22;40769;51.512;5.494;2022-09-30T06:59:37;11.30;99.90
13808;DHT22;40769;51.512;5.494;2022-09-30T07:02:03;11.50;99.90
13808;DHT22;40769;51.512;5.494;2022-09-30T07:04:29;11.70;99.90
13808;DHT22;40769;51.512;5.494;2022-09-30T07:06:55;12.40;99.90
13808;DHT22;40769;51.512;5.494;2022-09-30T07:09:20;12.20;99.90
13808;DHT22;40769;51.512;5.494;2022-09-30T07:11:46;12.60;99.90
13808;DHT22;40769;51.512;5.494;2022-09-30T07:14:13;13.00;99.90
13808;DHT22;40769;51.512;5.494;2022-09-30T07:16:38;13.40;99.90
13808;DHT22;40769;51.512;5.494;2022-09-30T07:19:05;13.10;99.90
13808;DHT22;40769;51.512;5.494;2022-09-30T07:21:31;13.20;99.90
13808;DHT22;40769;51.512;5.494;2022-09-30T07:23:57;13.50;99.90
13808;DHT22;40769;51.512;5.494;2022-09-30T07:26:26;13.70;99.90
13808;DHT22;40769;51.512;5.494;2022-09-30T07:28:52;13.80;99.90
13808;DHT22;40769;51.512;5.494;2022-09-30T07:31:24;14.10;99.90
13808;DHT22;40769;51.512;5.494;2022-09-30T07:33:50;14.30;99.90
13808;DHT22;40769;51.512;5.494;2022-09-30T07:36:22;14.40;99.90
13808;DHT22;40769;51.512;5.494;2022-09-30T07:38:52;14.60;99.90
13808;DHT22;40769;51.512;5.494;2022-09-30T07:41:22;14.90;99.90
13808;DHT22;40769;51.512;5.494;2022-09-30T07:43:51;15.00;99.90
13808;DHT22;40769;51.512;5.494;2022-09-30T07:46:30;15.40;99.90
13808;DHT22;40769;51.512;5.494;2022-09-30T07:48:58;15.40;99.90
13808;DHT22;40769;51.512;5.494;2022-09-30T07:51:32;15.50;99.90
13808;DHT22;40769;51.512;5.494;2022-09-30T07:54:01;15.70;99.90
13808;DHT22;40769;51.512;5.494;2022-09-30T07:56:28;15.80;99.90
13808;DHT22;40769;51.512;5.494;2022-09-30T07:58:55;16.00;99.90
13808;DHT22;40769;51.512;5.494;2022-09-30T08:01:22;16.10;99.90
13808;DHT22;40769;51.512;5.494;2022-09-30T08:03:53;16.40;99.90
13808;DHT22;40769;51.512;5.494;2022-09-30T08:06:19;16.40;99.90
13808;DHT22;40769;51.512;5.494;2022-09-30T08:08:45;16.70;99.90
13808;DHT22;40769;51.512;5.494;2022-09-30T08:11:12;16.70;99.90
13808;DHT22;40769;51.512;5.494;2022-09-30T08:13:39;16.80;99.90
13808;DHT22;40769;51.512;5.494;2022-09-30T08:16:05;16.90;99.90
13808;DHT22;40769;51.512;5.494;2022-09-30T08:18:31;17.00;99.90
13808;DHT22;40769;51.512;5.494;2022-09-30T08:21:04;17.10;99.90
13808;DHT22;40769;51.512;5.494;2022-09-30T08:23:31;17.30;99.90
13808;DHT22;40769;51.512;5.494;2022-09-30T08:26:05;17.40;99.90
13808;DHT22;40769;51.512;5.494;2022-09-30T08:28:32;17.50;99.90
13808;DHT22;40769;51.512;5.494;2022-09-30T08:31:11;17.60;99.90
13808;DHT22;40769;51.512;5.494;2022-09-30T08:33:37;17.70;99.90
13808;DHT22;40769;51.512;5.494;2022-09-30T08:36:24;17.70;99.90
13808;DHT22;40769;51.512;5.494;2022-09-30T08:38:50;17.90;99.90
13808;DHT22;40769;51.512;5.494;2022-09-30T08:50:27;18.30;99.90
13808;DHT22;40769;51.512;5.494;2022-09-30T08:53:00;18.30;99.90
13808;DHT22;40769;51.512;5.494;2022-09-30T08:55:37;18.40;99.90
13808;DHT22;40769;51.512;5.494;2022-09-30T08:58:05;18.60;99.90
13808;DHT22;40769;51.512;5.494;2022-09-30T09:00:32;18.70;99.90
13808;DHT22;40769;51.512;5.494;2022-09-30T09:02:59;18.80;99.90
13808;DHT22;40769;51.512;5.494;2022-09-30T09:06:01;18.90;99.90
13808;DHT22;40769;51.512;5.494;2022-09-30T09:11:37;19.10;99.90
13808;DHT22;40769;51.512;5.494;2022-09-30T09:14:21;19.10;99.90
13808;DHT22;40769;51.512;5.494;2022-09-30T09:20:06;19.30;99.90
13808;DHT22;40769;51.512;5.494;2022-09-30T09:22:33;19.40;99.90
13808;DHT22;40769;51.512;5.494;2022-09-30T09:25:01;19.00;99.90
13808;DHT22;40769;51.512;5.494;2022-09-30T09:27:44;19.50;99.90
13808;DHT22;40769;51.512;5.494;2022-09-30T09:30:20;19.60;99.90
13808;DHT22;40769;51.512;5.494;2022-09-30T09:32:54;19.70;99.90
13808;DHT22;40769;51.512;5.494;2022-09-30T09:46:39;20.30;99.90
13808;DHT22;40769;51.512;5.494;2022-09-30T09:49:25;20.40;99.90
13808;DHT22;40769;51.512;5.494;2022-09-30T09:52:12;20.60;99.90
13808;DHT22;40769;51.512;5.494;2022-09-30T09:54:49;20.70;99.90
13808;DHT22;40769;51.512;5.494;2022-09-30T09:57:17;20.80;99.90
13808;DHT22;40769;51.512;5.494;2022-09-30T10:00:00;20.90;99.90
13808;DHT22;40769;51.512;5.494;2022-09-30T10:05:34;21.10;99.90
13808;DHT22;40769;51.512;5.494;2022-09-30T10:10:47;21.30;99.90
13808;DHT22;40769;51.512;5.494;2022-09-30T10:13:18;21.40;99.90
13808;DHT22;40769;51.512;5.494;2022-09-30T10:15:45;21.50;99.90
13808;DHT22;40769;51.512;5.494;2022-09-30T10:18:26;21.60;99.90
13808;DHT22;40769;51.512;5.494;2022-09-30T10:20:55;21.70;99.90
13808;DHT22;40769;51.512;5.494;2022-09-30T10:26:00;21.70;99.90
13808;DHT22;40769;51.512;5.494;2022-09-30T10:28:28;21.70;99.90
13808;DHT22;40769;51.512;5.494;2022-09-30T10:30:57;21.70;99.90
13808;DHT22;40769;51.512;5.494;2022-09-30T10:38:27;21.90;99.90
13808;DHT22;40769;51.512;5.494;2022-09-30T10:40:54;21.90;99.90
13808;DHT22;40769;51.512;5.494;2022-09-30T10:43:30;21.90;99.90
13808;DHT22;40769;51.512;5.494;2022-09-30T10:45:58;22.00;99.90
13808;DHT22;40769;51.512;5.494;2022-09-30T10:48:32;22.10;99.90
13808;DHT22;40769;51.512;5.494;2022-09-30T10:50:58;22.10;99.90
13808;DHT22;40769;51.512;5.494;2022-09-30T10:53:31;22.20;99.90
13808;DHT22;40769;51.512;5.494;2022-09-30T10:55:58;22.30;99.90
13808;DHT22;40769;51.512;5.494;2022-09-30T10:58:33;22.30;99.90
13808;DHT22;40769;51.512;5.494;2022-09-30T11:01:03;22.50;99.90
13808;DHT22;40769;51.512;5.494;2022-09-30T11:03:38;22.60;99.90
13808;DHT22;40769;51.512;5.494;2022-09-30T11:06:05;22.70;99.90
13808;DHT22;40769;51.512;5.494;2022-09-30T11:08:36;22.80;99.90
13808;DHT22;40769;51.512;5.494;2022-09-30T11:11:13;23.00;99.90
13808;DHT22;40769;51.512;5.494;2022-09-30T11:13:56;23.00;99.90
13808;DHT22;40769;51.512;5.494;2022-09-30T11:16:58;23.00;99.90
13808;DHT22;40769;51.512;5.494;2022-09-30T11:19:40;22.90;99.90
13808;DHT22;40769;51.512;5.494;2022-09-30T11:22:35;22.80;99.90
13808;DHT22;40769;51.512;5.494;2022-09-30T11:25:02;22.70;99.90
13808;DHT22;40769;51.512;5.494;2022-09-30T11:30:24;22.50;99.90
13808;DHT22;40769;51.512;5.494;2022-09-30T11:35:58;22.30;99.90
13808;DHT22;40769;51.512;5.494;2022-09-30T11:41:33;22.40;99.90
13808;DHT22;40769;51.512;5.494;2022-09-30T11:55:49;22.70;99.90
13808;DHT22;40769;51.512;5.494;2022-09-30T11:58:21;22.60;99.90
13808;DHT22;40769;51.512;5.494;2022-09-30T12:00:59;22.40;99.90
13808;DHT22;40769;51.512;5.494;2022-09-30T12:03:39;22.20;99.90
13808;DHT22;40769;51.512;5.494;2022-09-30T12:06:17;22.10;99.90
13808;DHT22;40769;51.512;5.494;2022-09-30T12:08:54;22.10;99.90
13808;DHT22;40769;51.512;5.494;2022-09-30T12:12:00;22.10;99.90
13808;DHT22;40769;51.512;5.494;2022-09-30T12:14:40;22.20;99.90
13808;DHT22;40769;51.512;5.494;2022-09-30T12:17:16;22.30;99.90
13808;DHT22;40769;51.512;5.494;2022-09-30T12:19:47;22.50;99.90
13808;DHT22;40769;51.512;5.494;2022-09-30T12:22:27;22.50;99.90
13808;DHT22;40769;51.512;5.494;2022-09-30T12:24:54;22.50;99.90
13808;DHT22;40769;51.512;5.494;2022-09-30T12:27:35;22.50;99.90
13808;DHT22;40769;51.512;5.494;2022-09-30T12:30:16;22.30;99.90
13808;DHT22;40769;51.512;5.494;2022-09-30T12:41:00;22.10;99.90
13808;DHT22;40769;51.512;5.494;2022-09-30T12:43:37;22.20;99.90
13808;DHT22;40769;51.512;5.494;2022-09-30T12:46:44;22.40;99.90
13808;DHT22;40769;51.512;5.494;2022-09-30T12:49:16;22.60;99.90
13808;DHT22;40769;51.512;5.494;2022-09-30T12:51:48;22.70;99.90
13808;DHT22;40769;51.512;5.494;2022-09-30T12:54:18;22.90;99.90
13808;DHT22;40769;51.512;5.494;2022-09-30T12:56:46;23.00;99.90
13808;DHT22;40769;51.512;5.494;2022-09-30T12:59:27;23.00;99.90
13808;DHT22;40769;51.512;5.494;2022-09-30T13:01:54;23.00;99.90
13808;DHT22;40769;51.512;5.494;2022-09-30T13:04:39;23.10;99.90
13808;DHT22;40769;51.512;5.494;2022-09-30T13:09:55;23.10;99.90
13808;DHT22;40769;51.512;5.494;2022-09-30T13:12:43;23.10;99.90
13808;DHT22;40769;51.512;5.494;2022-09-30T13:15:43;23.00;99.90
13808;DHT22;40769;51.512;5.494;2022-09-30T13:23:51;22.70;99.90
13808;DHT22;40769;51.512;5.494;2022-09-30T13:26:33;22.60;99.90
13808;DHT22;40769;51.512;5.494;2022-09-30T13:31:26;22.80;99.90
13808;DHT22;40769;51.512;5.494;2022-09-30T13:36:31;23.00;99.90
13808;DHT22;40769;51.512;5.494;2022-09-30T13:39:16;23.10;99.90
13808;DHT22;40769;51.512;5.494;2022-09-30T13:41:45;23.10;99.90
13808;DHT22;40769;51.512;5.494;2022-09-30T13:44:30;23.10;99.90
13808;DHT22;40769;51.512;5.494;2022-09-30T13:47:04;22.90;99.90
13808;DHT22;40769;51.512;5.494;2022-09-30T13:49:51;22.70;99.90
13808;DHT22;40769;51.512;5.494;2022-09-30T13:52:30;22.50;99.90
13808;DHT22;40769;51.512;5.494;2022-09-30T13:54:59;22.40;99.90
13808;DHT22;40769;51.512;5.494;2022-09-30T13:57:38;22.20;99.90
13808;DHT22;40769;51.512;5.494;2022-09-30T14:00:12;22.00;99.90
13808;DHT22;40769;51.512;5.494;2022-09-30T14:02:57;21.70;99.90
13808;DHT22;40769;51.512;5.494;2022-09-30T14:22:04;22.30;99.90
13808;DHT22;40769;51.512;5.494;2022-09-30T14:24:33;22.50;99.90
13808;DHT22;40769;51.512;5.494;2022-09-30T14:27:24;22.60;99.90
13808;DHT22;40769;51.512;5.494;2022-09-30T14:30:31;22.80;99.90
13808;DHT22;40769;51.512;5.494;2022-09-30T14:33:09;23.00;99.90
13808;DHT22;40769;51.512;5.494;2022-09-30T14:35:36;23.10;99.90
13808;DHT22;40769;51.512;5.494;2022-09-30T14:38:20;23.20;99.90
13808;DHT22;40769;51.512;5.494;2022-09-30T14:40:52;23.30;99.90
13808;DHT22;40769;51.512;5.494;2022-09-30T14:43:25;23.40;99.90
13808;DHT22;40769;51.512;5.494;2022-09-30T14:46:13;23.40;99.90
13808;DHT22;40769;51.512;5.494;2022-09-30T14:48:42;23.50;99.90
13808;DHT22;40769;51.512;5.494;2022-09-30T14:51:11;23.50;99.90
13808;DHT22;40769;51.512;5.494;2022-09-30T14:53:41;23.50;99.90
13808;DHT22;40769;51.512;5.494;2022-09-30T14:56:37;23.40;99.90
13808;DHT22;40769;51.512;5.494;2022-09-30T14:59:16;23.20;99.90
13808;DHT22;40769;51.512;5.494;2022-09-30T15:01:42;23.00;99.90
13808;DHT22;40769;51.512;5.494;2022-09-30T15:04:15;22.80;99.90
13808;DHT22;40769;51.512;5.494;2022-09-30T15:06:44;22.60;99.90
13808;DHT22;40769;51.512;5.494;2022-09-30T15:11:54;22.50;99.90
13808;DHT22;40769;51.512;5.494;2022-09-30T15:14:22;22.40;99.90
13808;DHT22;40769;51.512;5.494;2022-09-30T15:16:51;22.40;99.90
13808;DHT22;40769;51.512;5.494;2022-09-30T15:21:52;22.60;99.90
13808;DHT22;40769;51.512;5.494;2022-09-30T15:24:21;22.90;99.90
13808;DHT22;40769;51.512;5.494;2022-09-30T15:26:47;22.90;99.90
13808;DHT22;40769;51.512;5.494;2022-09-30T15:29:15;23.00;99.90
13808;DHT22;40769;51.512;5.494;2022-09-30T15:31:46;23.20;99.90
13808;DHT22;40769;51.512;5.494;2022-09-30T15:34:16;23.40;99.90
13808;DHT22;40769;51.512;5.494;2022-09-30T15:36:44;23.50;99.90
13808;DHT22;40769;51.512;5.494;2022-09-30T15:39:23;23.60;99.90
13808;DHT22;40769;51.512;5.494;2022-09-30T15:42:09;23.60;99.90
13808;DHT22;40769;51.512;5.494;2022-09-30T15:44:38;23.70;99.90
13808;DHT22;40769;51.512;5.494;2022-09-30T15:47:06;23.70;99.90
13808;DHT22;40769;51.512;5.494;2022-09-30T15:54:55;23.50;99.90
13808;DHT22;40769;51.512;5.494;2022-09-30T15:57:45;23.50;99.90
13808;DHT22;40769;51.512;5.494;2022-09-30T16:00:33;23.40;99.90
13808;DHT22;40769;51.512;5.494;2022-09-30T16:03:26;23.30;99.90
13808;DHT22;40769;51.512;5.494;2022-09-30T16:11:48;22.70;99.90
13808;DHT22;40769;51.512;5.494;2022-09-30T16:14:25;22.40;99.90
13808;DHT22;40769;51.512;5.494;2022-09-30T16:16:54;22.20;99.90
13808;DHT22;40769;51.512;5.494;2022-09-30T16:19:20;22.10;99.90
13808;DHT22;40769;51.512;5.494;2022-09-30T16:21:49;21.90;99.90
13808;DHT22;40769;51.512;5.494;2022-09-30T16:26:55;21.40;99.90
13808;DHT22;40769;51.512;5.494;2022-09-30T16:29:22;21.20;99.90
13808;DHT22;40769;51.512;5.494;2022-09-30T16:31:50;21.00;99.90
13808;DHT22;40769;51.512;5.494;2022-09-30T16:34:24;20.80;99.90
13808;DHT22;40769;51.512;5.494;2022-09-30T16:37:02;20.50;99.90
13808;DHT22;40769;51.512;5.494;2022-09-30T16:39:28;20.30;99.90
13808;DHT22;40769;51.512;5.494;2022-09-30T16:41:53;20.10;99.90
13808;DHT22;40769;51.512;5.494;2022-09-30T16:44:19;19.90;99.90
13808;DHT22;40769;51.512;5.494;2022-09-30T16:46:48;19.60;99.90
13808;DHT22;40769;51.512;5.494;2022-09-30T16:49:17;19.40;99.90
13808;DHT22;40769;51.512;5.494;2022-09-30T16:51:43;19.10;99.90
13808;DHT22;40769;51.512;5.494;2022-09-30T16:54:10;18.80;99.90
13808;DHT22;40769;51.512;5.494;2022-09-30T16:56:35;18.60;99.90
13808;DHT22;40769;51.512;5.494;2022-09-30T16:59:02;18.40;99.90
13808;DHT22;40769;51.512;5.494;2022-09-30T17:01:28;18.20;99.90
13808;DHT22;40769;51.512;5.494;2022-09-30T17:03:56;18.00;99.90
13808;DHT22;40769;51.512;5.494;2022-09-30T17:06:27;18.00;99.90
13808;DHT22;40769;51.512;5.494;2022-09-30T17:08:53;17.80;99.90
13808;DHT22;40769;51.512;5.494;2022-09-30T17:11:23;17.60;99.90
13808;DHT22;40769;51.512;5.494;2022-09-30T17:13:53;17.60;99.90
13808;DHT22;40769;51.512;5.494;2022-09-30T17:16:19;17.70;99.90
13808;DHT22;40769;51.512;5.494;2022-09-30T17:18:45;17.80;99.90
13808;DHT22;40769;51.512;5.494;2022-09-30T17:21:10;17.80;99.90
13808;DHT22;40769;51.512;5.494;2022-09-30T17:23:36;17.90;99.90
13808;DHT22;40769;51.512;5.494;2022-09-30T17:26:05;17.90;99.90
13808;DHT22;40769;51.512;5.494;2022-09-30T17:28:30;18.00;99.90
13808;DHT22;40769;51.512;5.494;2022-09-30T17:30:59;18.00;99.90
13808;DHT22;40769;51.512;5.494;2022-09-30T17:33:29;17.90;99.90
13808;DHT22;40769;51.512;5.494;2022-09-30T17:36:06;17.90;99.90
13808;DHT22;40769;51.512;5.494;2022-09-30T17:38:33;17.90;99.90
13808;DHT22;40769;51.512;5.494;2022-09-30T17:40:59;17.90;99.90
13808;DHT22;40769;51.512;5.494;2022-09-30T17:43:43;17.90;99.90
13808;DHT22;40769;51.512;5.494;2022-09-30T17:46:13;17.90;99.90
13808;DHT22;40769;51.512;5.494;2022-09-30T17:48:46;17.90;99.90
13808;DHT22;40769;51.512;5.494;2022-09-30T17:51:13;17.80;99.90
13808;DHT22;40769;51.512;5.494;2022-09-30T17:53:40;17.80;99.90
13808;DHT22;40769;51.512;5.494;2022-09-30T17:56:14;17.70;99.90
13808;DHT22;40769;51.512;5.494;2022-09-30T17:58:41;17.60;99.90
13808;DHT22;40769;51.512;5.494;2022-09-30T18:01:09;17.60;99.90
13808;DHT22;40769;51.512;5.494;2022-09-30T18:03:35;17.50;99.90
13808;DHT22;40769;51.512;5.494;2022-09-30T18:06:02;18.20;99.90
13808;DHT22;40769;51.512;5.494;2022-09-30T18:08:30;17.40;99.90
13808;DHT22;40769;51.512;5.494;2022-09-30T18:10:56;17.40;99.90
13808;DHT22;40769;51.512;5.494;2022-09-30T18:13:25;17.30;99.90
13808;DHT22;40769;51.512;5.494;2022-09-30T18:15:51;17.20;99.90
13808;DHT22;40769;51.512;5.494;2022-09-30T18:18:17;17.20;99.90
13808;DHT22;40769;51.512;5.494;2022-09-30T18:20:47;17.20;99.90
13808;DHT22;40769;51.512;5.494;2022-09-30T18:23:15;17.10;99.90
13808;DHT22;40769;51.512;5.494;2022-09-30T18:25:43;17.00;99.90
13808;DHT22;40769;51.512;5.494;2022-09-30T18:28:10;17.00;99.90
13808;DHT22;40769;51.512;5.494;2022-09-30T18:30:37;16.90;99.90
13808;DHT22;40769;51.512;5.494;2022-09-30T18:33:03;16.90;99.90
13808;DHT22;40769;51.512;5.494;2022-09-30T18:35:33;16.90;99.90
13808;DHT22;40769;51.512;5.494;2022-09-30T18:37:59;16.80;99.90
13808;DHT22;40769;51.512;5.494;2022-09-30T18:40:27;16.80;99.90
13808;DHT22;40769;51.512;5.494;2022-09-30T18:42:54;16.70;99.90
13808;DHT22;40769;51.512;5.494;2022-09-30T18:45:33;16.70;99.90
13808;DHT22;40769;51.512;5.494;2022-09-30T18:48:05;16.70;99.90
13808;DHT22;40769;51.512;5.494;2022-09-30T18:50:32;16.70;99.90